Time;durP1;ratioP1;P1;durP2;ratioP2;P2;SDS_P1;SDS_P2;PMS_P1;PMS_P2;Temp;Humidity;BMP_temperature;BMP_pressure;BME280_temperature;BME280_humidity;BME280_pressure;Samples;Min_cycle;Max_cycle;Signal;HPM_P1;HPM_P2
2021/01/03 00:02:12;;;;;;;5.30;2.75;;;;;;;7.42;63.25;99250.66;4953707;29;20086;-71
2021/01/03 00:04:42;;;;;;;4.25;2.20;;;;;;;7.53;62.79;99245.63;4953544;29;20058;-72
2021/01/03 00:07:10;;;;;;;7.10;2.58;;;;;;;7.68;61.76;99250.75;4937329;29;20138;-72
2021/01/03 00:09:38;;;;;;;4.78;2.20;;;;;;;7.81;60.90;99247.44;4953467;29;20051;-71
2021/01/03 00:12:06;;;;;;;5.10;2.33;;;;;;;7.84;60.92;99252.53;4953359;29;20046;-71
2021/01/03 00:14:36;;;;;;;;;;;;;;;7.87;60.60;99247.44;4953815;29;20052;-72
2021/01/03 00:17:06;;;;;;;5.93;2.30;;;;;;;7.81;61.38;99242.34;4953399;29;20009;-72
2021/01/03 00:19:33;;;;;;;5.38;2.78;;;;;;;7.72;61.25;99241.47;4953796;29;20055;-72
2021/01/03 00:22:01;;;;;;;6.63;2.88;;;;;;;7.52;59.91;99198.22;4953336;29;20509;-71
2021/01/03 00:24:29;;;;;;;5.65;2.20;;;;;;;7.87;60.21;99232.19;4953366;29;20047;-72
2021/01/03 00:26:57;;;;;;;4.82;2.60;;;;;;;7.83;61.02;99235.56;4961966;28;20057;-71
2021/01/03 00:29:25;;;;;;;5.40;2.60;;;;;;;7.85;59.72;99227.94;4994261;28;20042;-73
2021/01/03 00:31:54;;;;;;;5.40;2.40;;;;;;;7.92;60.21;99230.50;5009063;28;20435;-72
2021/01/03 00:34:22;;;;;;;5.78;2.58;;;;;;;7.87;59.98;99216.94;5009169;28;20096;-71
2021/01/03 00:36:50;;;;;;;5.18;2.47;;;;;;;7.94;59.68;99228.81;4993926;28;20400;-72
2021/01/03 00:39:17;;;;;;;4.93;2.42;;;;;;;7.88;59.60;99228.81;4992963;28;20428;-72
2021/01/03 00:41:47;;;;;;;5.65;2.60;;;;;;;7.79;60.26;99246.59;4993684;28;20055;-72
2021/01/03 00:44:33;;;;;;;5.55;2.60;;;;;;;7.74;60.40;99225.41;4993857;28;20061;-71
2021/01/03 00:47:01;;;;;;;5.75;2.35;;;;;;;7.83;59.27;99235.56;4995794;28;20042;-71
2021/01/03 00:49:29;;;;;;;4.30;2.35;;;;;;;7.82;59.89;99241.47;4997599;28;20066;-72
2021/01/03 00:51:57;;;;;;;5.65;2.40;;;;;;;7.84;60.13;99236.44;4995871;28;20070;-72
2021/01/03 00:54:25;;;;;;;5.18;2.60;;;;;;;7.78;59.46;99236.41;4997500;28;20062;-71
2021/01/03 00:56:53;;;;;;;5.38;2.40;;;;;;;7.78;60.14;99242.31;4997646;28;20113;-72
2021/01/03 00:59:21;;;;;;;3.95;2.20;;;;;;;7.79;59.68;99249.13;4996446;28;20035;-71
2021/01/03 01:01:50;;;;;;;6.05;2.38;;;;;;;7.86;58.54;99243.22;4997253;28;20035;-72
2021/01/03 01:04:19;;;;;;;5.47;2.45;;;;;;;7.86;58.55;99242.34;4997331;28;20046;-72
2021/01/03 01:06:47;;;;;;;4.47;1.93;;;;;;;7.93;58.09;99237.31;4997515;28;20039;-71
2021/01/03 01:09:15;;;;;;;4.57;2.20;;;;;;;7.97;57.96;99250.84;4979964;28;20495;-72
2021/01/03 01:11:43;;;;;;;5.13;2.40;;;;;;;7.90;58.22;99242.38;4997136;28;20081;-72
2021/01/03 01:14:12;;;;;;;5.13;2.10;;;;;;;7.84;58.62;99246.59;4997164;28;20081;-72
2021/01/03 01:16:40;;;;;;;4.50;2.33;;;;;;;7.79;59.20;99231.34;4996995;28;20296;-72
2021/01/03 01:19:08;;;;;;;3.27;2.03;;;;;;;7.77;58.87;99220.34;4995973;28;20050;-72
2021/01/03 01:21:37;;;;;;;5.20;2.25;;;;;;;7.72;58.73;99216.94;4996836;28;20046;-73
2021/01/03 01:24:06;;;;;;;5.10;2.40;;;;;;;7.81;58.58;99229.66;5012313;28;20096;-73
2021/01/03 01:26:33;;;;;;;5.85;2.47;;;;;;;7.87;58.37;99219.47;4996867;28;20149;-72
2021/01/03 01:29:01;;;;;;;5.45;2.53;;;;;;;7.83;58.64;99230.50;4996888;28;20054;-73
2021/01/03 01:34:11;;;;;;;5.10;2.08;;;;;;;7.91;57.54;99228.84;4955994;29;20058;-72
2021/01/03 01:36:45;;;;;;;4.50;2.30;;;;;;;7.89;57.89;99214.44;4956235;29;20080;-71
2021/01/03 01:39:12;;;;;;;5.72;2.40;;;;;;;7.88;58.16;99216.13;4955844;29;20039;-72
2021/01/03 01:41:40;;;;;;;5.20;2.60;;;;;;;7.90;57.96;99222.03;4955701;29;20062;-72
2021/01/03 01:44:09;;;;;;;4.75;2.50;;;;;;;7.90;57.69;99216.97;4955837;29;20075;-72
2021/01/03 01:46:43;;;;;;;4.80;2.42;;;;;;;7.78;58.32;99219.47;4955638;29;20460;-71
2021/01/03 01:49:15;;;;;;;5.07;1.95;;;;;;;7.81;58.05;99216.94;4955832;29;20047;-72
2021/01/03 01:51:49;;;;;;;5.38;2.72;;;;;;;7.82;58.47;99208.47;4955699;29;20058;-72
2021/01/03 01:54:21;;;;;;;5.05;2.58;;;;;;;7.77;58.30;99210.16;4939582;29;20059;-71
2021/01/03 01:56:57;;;;;;;4.95;2.25;;;;;;;7.72;59.26;99211.84;4955404;28;20047;-72
2021/01/03 01:59:34;;;;;;;5.28;2.30;;;;;;;7.64;59.32;99208.41;4955449;29;20167;-72
2021/01/03 02:02:06;;;;;;;5.55;2.45;;;;;;;7.73;58.80;99218.59;4955631;29;20067;-71
2021/01/03 02:04:38;;;;;;;5.47;2.35;;;;;;;7.74;59.17;99205.06;4939387;29;20044;-72
2021/01/03 02:07:16;;;;;;;5.18;2.35;;;;;;;7.74;58.56;99209.28;4955528;29;20102;-72
2021/01/03 02:09:55;;;;;;;6.15;2.70;;;;;;;7.69;58.89;99206.75;4955363;29;20134;-72
2021/01/03 02:12:29;;;;;;;4.88;2.10;;;;;;;7.50;59.36;99184.69;4992908;28;20061;-71
2021/01/03 02:14:58;;;;;;;6.82;2.83;;;;;;;7.57;59.09;99191.47;4996085;28;20480;-72
2021/01/03 02:17:27;;;;;;;5.40;2.53;;;;;;;7.65;58.98;99209.28;4996075;28;20062;-73
2021/01/03 02:19:57;;;;;;;5.35;2.50;;;;;;;7.59;59.07;99197.41;4995832;28;20042;-72
2021/01/03 02:22:35;;;;;;;7.28;2.75;;;;;;;7.61;59.47;99212.63;4995979;28;20042;-73
2021/01/03 02:25:06;;;;;;;5.47;2.00;;;;;;;7.60;58.95;99206.72;4995978;28;20096;-70
2021/01/03 02:27:43;;;;;;;5.10;2.08;;;;;;;7.68;58.31;99194.06;4995864;28;20412;-73
2021/01/03 02:30:12;;;;;;;5.47;2.50;;;;;;;7.28;58.72;99121.97;4995687;28;20049;-72
2021/01/03 02:32:44;;;;;;;7.07;2.70;;;;;;;7.61;59.27;99197.41;4995694;28;20126;-72
2021/01/03 02:35:12;;;;;;;7.47;3.30;;;;;;;7.53;59.40;99189.78;4994669;28;20386;-72
2021/01/03 02:37:42;;;;;;;4.90;2.38;;;;;;;7.58;59.60;99187.25;4995545;28;20058;-71
2021/01/03 02:40:17;;;;;;;5.13;2.50;;;;;;;7.53;59.76;99179.63;4995228;28;20070;-71
2021/01/03 02:42:45;;;;;;;5.32;2.80;;;;;;;7.59;59.00;99174.53;4995450;28;20527;-72
2021/01/03 02:45:16;;;;;;;5.68;2.20;;;;;;;7.56;59.86;99169.44;4995386;28;20047;-71
2021/01/03 02:47:44;;;;;;;5.40;2.58;;;;;;;7.54;60.29;99176.22;4995401;28;20422;-72
2021/01/03 02:50:15;;;;;;;5.20;2.63;;;;;;;7.55;59.89;99170.31;4995620;28;20488;-73
2021/01/03 02:52:45;;;;;;;5.65;2.63;;;;;;;7.50;60.19;99179.59;4995217;28;20062;-71
2021/01/03 02:55:15;;;;;;;7.43;3.10;;;;;;;7.38;61.13;99156.72;4995326;28;20038;-72
2021/01/03 02:57:43;;;;;;;5.25;2.60;;;;;;;7.41;60.16;99152.47;4995533;28;20377;-72
2021/01/03 03:00:14;;;;;;;4.45;2.10;;;;;;;7.47;60.15;99164.34;4995234;28;20046;-72
2021/01/03 03:02:42;;;;;;;4.35;2.45;;;;;;;7.41;60.45;99169.44;4995203;28;20054;-71
2021/01/03 03:05:11;;;;;;;5.70;2.72;;;;;;;7.43;59.91;99160.13;4994957;28;20043;-73
2021/01/03 03:07:38;;;;;;;4.65;2.40;;;;;;;7.46;59.96;99162.69;4995034;28;20473;-72
2021/01/03 03:10:08;;;;;;;5.90;2.50;;;;;;;5.86;59.88;98898.28;4994310;28;20046;-72
2021/01/03 03:12:36;;;;;;;6.80;3.10;;;;;;;7.43;59.84;99163.50;4994942;28;20043;-72
2021/01/03 03:15:05;;;;;;;6.97;2.97;;;;;;;7.35;60.03;99149.06;4995028;28;20046;-71
2021/01/03 03:17:33;;;;;;;3.85;1.98;;;;;;;7.33;60.55;99145.69;4994901;28;20050;-71
2021/01/03 03:20:01;;;;;;;4.15;1.98;;;;;;;7.39;60.21;99150.78;4993915;28;20056;-72
2021/01/03 03:22:29;;;;;;;4.88;2.42;;;;;;;7.44;59.63;99149.09;4994100;28;20114;-72
2021/01/03 03:24:57;;;;;;;4.75;2.20;;;;;;;6.23;59.24;98953.38;4993840;28;20070;-71
2021/01/03 03:27:24;;;;;;;5.15;2.30;;;;;;;7.59;57.21;99149.16;4994714;28;20053;-71
2021/01/03 03:29:53;;;;;;;3.67;1.70;;;;;;;7.58;58.08;99147.47;4993617;28;20039;-72
2021/01/03 03:32:21;;;;;;;4.55;2.25;;;;;;;7.56;58.46;99143.25;4994609;28;20039;-72
2021/01/03 03:34:48;;;;;;;4.90;2.25;;;;;;;7.50;58.47;99143.22;5009636;28;20408;-71
2021/01/03 03:37:17;;;;;;;6.05;3.22;;;;;;;6.43;57.80;98949.22;4994574;28;20046;-72
2021/01/03 03:39:45;;;;;;;6.97;2.58;;;;;;;7.60;57.66;99137.31;4994347;28;20049;-71
2021/01/03 03:42:13;;;;;;;4.82;2.55;;;;;;;7.55;58.00;99131.38;4994342;28;20508;-71
2021/01/03 03:44:40;;;;;;;5.80;2.25;;;;;;;7.49;58.46;99136.41;4994479;28;20069;-71
2021/01/03 03:47:10;;;;;;;3.92;1.90;;;;;;;7.55;57.59;99132.22;5009691;28;20396;-71
2021/01/03 03:49:37;;;;;;;4.95;2.03;;;;;;;7.58;58.02;99122.09;4994471;28;20081;-72
2021/01/03 03:52:07;;;;;;;6.15;2.15;;;;;;;7.51;58.44;99120.34;4994161;28;20050;-71
2021/01/03 03:54:34;;;;;;;6.30;2.00;;;;;;;7.45;58.46;99110.19;4994350;28;20377;-72
2021/01/03 03:57:05;;;;;;;5.25;2.47;;;;;;;7.40;58.90;99104.25;4994343;28;20084;-71
2021/01/03 03:59:33;;;;;;;5.78;2.47;;;;;;;7.41;58.41;99108.50;4994271;28;20687;-72
2021/01/03 04:02:01;;;;;;;5.78;2.58;;;;;;;7.38;58.35;99108.50;4994535;28;20054;-72
2021/01/03 04:04:30;;;;;;;4.65;2.20;;;;;;;7.28;58.87;99106.75;4994535;28;20042;-72
2021/01/03 04:06:57;;;;;;;4.88;2.75;;;;;;;7.11;59.74;99083.00;4994001;28;20452;-72
2021/01/03 04:09:27;;;;;;;4.78;2.40;;;;;;;7.20;60.15;99103.34;4993009;28;20042;-71
2021/01/03 04:11:55;;;;;;;6.65;2.63;;;;;;;7.18;61.11;99100.81;4993994;28;20054;-71
2021/01/03 04:14:25;;;;;;;3.72;1.85;;;;;;;7.16;61.44;99109.25;4994211;28;20043;-72
2021/01/03 04:16:56;;;;;;;;;;;;;;;7.13;62.02;99116.84;4994879;28;20054;-71
2021/01/03 04:19:24;;;;;;;6.03;2.78;;;;;;;7.14;61.52;99118.56;4994001;28;20012;-72
2021/01/03 04:21:54;;;;;;;5.82;2.58;;;;;;;7.15;61.65;99135.50;4995922;28;20504;-72
2021/01/03 04:24:21;;;;;;;;;;;;;;;7.12;62.21;99136.31;4998410;28;20050;-72
2021/01/03 04:26:51;;;;;;;6.32;2.60;;;;;;;7.14;60.81;99128.69;4998051;28;19922;-71
2021/01/03 04:29:19;;;;;;;;;;;;;;;7.16;61.03;99132.94;4998385;28;20050;-71
2021/01/03 04:31:46;;;;;;;4.50;2.35;;;;;;;7.13;61.33;99132.06;4997796;28;19921;-71
2021/01/03 04:34:15;;;;;;;5.25;2.60;;;;;;;7.10;61.76;99111.78;4997812;28;20054;-71
2021/01/03 04:36:42;;;;;;;6.70;2.80;;;;;;;7.15;61.81;99138.84;4997866;28;20039;-72
2021/01/03 04:39:12;;;;;;;4.97;2.20;;;;;;;7.10;61.95;99129.53;4997803;28;20121;-72
2021/01/03 04:41:41;;;;;;;5.25;2.72;;;;;;;7.11;62.04;99134.59;4997533;28;20054;-72
2021/01/03 04:44:17;;;;;;;4.90;2.55;;;;;;;7.04;62.64;99140.50;4997783;28;20130;-72
2021/01/03 04:46:46;;;;;;;6.43;2.67;;;;;;;6.96;63.45;99133.72;4997698;28;20145;-71
2021/01/03 04:49:25;;;;;;;5.57;2.40;;;;;;;6.99;62.93;99138.78;4997636;28;20042;-72
2021/01/03 04:52:10;;;;;;;4.60;2.57;;;;;;;7.03;62.63;99140.50;4997594;28;20492;-71
2021/01/03 04:54:50;;;;;;;5.82;2.63;;;;;;;6.91;62.68;99132.84;5012551;28;20150;-72
2021/01/03 04:57:34;;;;;;;5.20;2.67;;;;;;;6.92;62.87;99125.22;4997590;28;20058;-71
2021/01/03 05:00:05;;;;;;;4.97;2.33;;;;;;;6.92;62.92;99126.91;4997492;28;20104;-72
2021/01/03 05:02:45;;;;;;;9.48;3.30;;;;;;;6.88;63.37;99125.22;4997469;28;20062;-71
2021/01/03 05:05:23;;;;;;;5.05;2.75;;;;;;;6.83;63.57;99121.78;4997407;28;20054;-71
2021/01/03 05:08:02;;;;;;;6.53;2.88;;;;;;;6.76;63.78;99131.06;4997359;28;20042;-71
2021/01/03 05:10:32;;;;;;;5.45;2.50;;;;;;;6.68;63.05;99108.19;4997338;28;20064;-71
2021/01/03 05:13:10;;;;;;;4.93;2.33;;;;;;;6.84;63.23;99131.13;4997100;28;20047;-71
2021/01/03 05:15:37;;;;;;;5.18;3.05;;;;;;;6.82;63.57;99145.44;4997184;28;20292;-72
2021/01/03 05:18:06;;;;;;;5.18;2.70;;;;;;;6.79;63.70;99140.38;4997037;28;20042;-72
2021/01/03 05:20:34;;;;;;;5.80;2.85;;;;;;;6.79;64.03;99138.66;4997033;28;20062;-71
2021/01/03 05:23:08;;;;;;;6.10;2.83;;;;;;;6.80;64.55;99126.84;4979202;28;20539;-72
2021/01/03 05:25:40;;;;;;;6.68;3.05;;;;;;;6.75;64.99;99117.53;5012006;28;20046;-71
2021/01/03 05:28:27;;;;;;;5.60;2.65;;;;;;;6.77;64.88;99111.63;4975618;28;20051;-71
2021/01/03 05:31:13;;;;;;;5.95;2.83;;;;;;;6.80;64.75;99114.16;4975560;28;20062;-71
2021/01/03 05:33:51;;;;;;;5.68;3.25;;;;;;;6.72;65.30;99109.91;4974560;28;20043;-71
2021/01/03 05:36:27;;;;;;;6.40;3.13;;;;;;;6.65;65.93;99103.09;4975323;28;20055;-71
2021/01/03 05:38:56;;;;;;;5.97;3.17;;;;;;;6.62;66.26;99103.09;4975262;28;20101;-71
2021/01/03 05:41:37;;;;;;;6.88;3.28;;;;;;;6.61;66.19;99106.47;4975159;28;20050;-71
2021/01/03 05:44:10;;;;;;;7.50;3.05;;;;;;;6.58;66.73;99108.97;4975121;28;20059;-71
2021/01/03 05:46:42;;;;;;;5.30;3.10;;;;;;;6.58;66.51;99116.59;4975329;28;20146;-71
2021/01/03 05:49:14;;;;;;;5.53;2.97;;;;;;;6.58;66.14;99116.59;4975114;28;20054;-71
2021/01/03 05:51:46;;;;;;;5.68;2.88;;;;;;;6.55;66.48;99111.50;4975047;28;20047;-71
2021/01/03 05:54:19;;;;;;;8.43;2.75;;;;;;;6.56;66.76;99118.28;4975070;28;20074;-72
2021/01/03 05:56:48;;;;;;;5.82;2.95;;;;;;;6.57;66.58;99122.50;4958853;28;20053;-71
2021/01/03 05:59:26;;;;;;;4.13;1.90;;;;;;;6.62;66.29;99128.44;4975009;28;20101;-72
2021/01/03 06:02:06;;;;;;;6.57;3.25;;;;;;;6.65;65.77;99128.47;4974860;28;20097;-71
2021/01/03 06:04:34;;;;;;;6.30;2.97;;;;;;;6.67;65.78;99124.25;4976572;28;20560;-72
2021/01/03 06:07:14;;;;;;;4.53;2.55;;;;;;;6.63;66.62;99124.22;4995139;28;20038;-71
2021/01/03 06:09:44;;;;;;;6.35;3.28;;;;;;;6.60;66.99;99119.13;4996199;28;20050;-71
2021/01/03 06:12:18;;;;;;;5.22;2.70;;;;;;;6.51;67.57;99130.06;4996075;28;20046;-72
2021/01/03 06:14:47;;;;;;;6.43;2.97;;;;;;;6.18;69.20;99083.38;4996391;28;20055;-72
2021/01/03 06:17:30;;;;;;;6.53;2.95;;;;;;;6.35;69.22;99128.28;4996065;28;20054;-71
2021/01/03 06:20:05;;;;;;;5.85;2.90;;;;;;;6.30;70.05;99131.59;4996179;28;20492;-71
2021/01/03 06:22:38;;;;;;;4.95;2.72;;;;;;;6.23;70.48;99138.31;4996223;28;20381;-71
2021/01/03 06:25:18;;;;;;;7.97;3.13;;;;;;;6.18;71.17;99129.84;4995884;28;20433;-71
2021/01/03 06:27:49;;;;;;;7.82;3.03;;;;;;;6.13;71.64;99131.47;4996460;28;20054;-72
2021/01/03 06:30:21;;;;;;;6.97;3.15;;;;;;;6.07;71.81;99126.34;4995793;28;20129;-71
2021/01/03 06:33:13;;;;;;;6.95;3.72;;;;;;;6.02;72.04;99125.50;4995695;28;20512;-71
2021/01/03 06:35:47;;;;;;;6.55;3.20;;;;;;;5.91;72.59;99120.31;4995637;28;20047;-71
2021/01/03 06:38:28;;;;;;;7.57;3.28;;;;;;;5.91;72.69;99139.72;4995578;28;20052;-71
2021/01/03 06:40:59;;;;;;;8.07;3.72;;;;;;;5.84;74.23;99145.53;4995319;28;20409;-71
2021/01/03 06:43:47;;;;;;;7.75;3.63;;;;;;;5.75;75.63;99148.00;4994941;28;20117;-71
2021/01/03 06:46:42;;;;;;;7.97;3.58;;;;;;;5.71;77.13;99151.34;4995823;28;20065;-71
2021/01/03 06:49:16;;;;;;;9.45;3.70;;;;;;;5.62;78.12;99147.00;4995379;28;20053;-71
2021/01/03 06:52:04;;;;;;;5.95;3.40;;;;;;;5.69;77.16;99147.91;4995622;28;20076;-71
2021/01/03 06:54:54;;;;;;;6.93;3.88;;;;;;;5.71;77.37;99152.16;4995426;28;20046;-71
2021/01/03 06:57:27;;;;;;;7.97;4.53;;;;;;;5.68;77.53;99156.34;4995293;28;20069;-71
2021/01/03 07:00:13;;;;;;;10.32;4.70;;;;;;;5.63;77.88;99153.78;4994122;28;20073;-71
2021/01/03 07:02:44;;;;;;;8.20;4.68;;;;;;;5.59;78.27;99161.34;4995146;28;20042;-71
2021/01/03 07:05:13;;;;;;;8.45;4.63;;;;;;;5.50;78.54;99166.25;4995390;28;20525;-71
2021/01/03 07:07:45;;;;;;;8.90;4.80;;;;;;;5.53;79.12;99186.56;4994965;28;20096;-71
2021/01/03 07:10:34;;;;;;;9.43;4.43;;;;;;;5.49;79.27;99179.78;5010144;28;20405;-71
2021/01/03 07:13:03;;;;;;;7.72;4.03;;;;;;;5.53;79.48;99181.50;4995005;28;20069;-71
2021/01/03 07:15:36;;;;;;;8.65;4.25;;;;;;;5.50;79.77;99181.44;4994830;28;20054;-71
2021/01/03 07:18:20;;;;;;;9.27;4.68;;;;;;;5.51;80.23;99184.03;4994998;28;20046;-71
2021/01/03 07:20:53;;;;;;;9.77;4.60;;;;;;;5.52;80.42;99174.75;4994821;28;20497;-71
2021/01/03 07:23:31;;;;;;;7.68;4.07;;;;;;;5.53;80.40;99181.50;4995166;28;20046;-71
2021/01/03 07:26:07;;;;;;;7.82;4.13;;;;;;;5.65;79.45;99186.69;4994834;28;20172;-71
2021/01/03 07:28:36;;;;;;;7.53;4.18;;;;;;;5.58;79.78;99183.25;4994655;28;20066;-71
2021/01/03 07:31:11;;;;;;;7.80;4.13;;;;;;;5.63;79.83;99188.38;4994650;28;20126;-71
2021/01/03 07:33:51;;;;;;;8.35;3.80;;;;;;;5.68;79.25;99180.00;4994623;28;20044;-71
2021/01/03 07:36:38;;;;;;;8.85;4.30;;;;;;;5.85;77.82;99185.25;4994519;28;20073;-71
2021/01/03 07:39:12;;;;;;;8.73;4.13;;;;;;;5.95;77.12;99182.81;4994650;28;20511;-70
2021/01/03 07:41:42;;;;;;;6.68;3.45;;;;;;;6.04;75.53;99179.53;4994318;28;20062;-71
2021/01/03 07:44:11;;;;;;;5.55;3.33;;;;;;;6.10;74.79;99177.03;4994832;28;20042;-71
2021/01/03 07:46:44;;;;;;;8.50;3.90;;;;;;;6.08;75.11;99171.97;4994310;28;20038;-71
2021/01/03 07:49:18;;;;;;;7.20;3.47;;;;;;;6.15;74.31;99170.34;4993546;28;20050;-70
2021/01/03 07:51:46;;;;;;;7.75;3.50;;;;;;;6.19;73.56;99164.44;4994299;28;20054;-71
2021/01/03 07:54:14;;;;;;;7.93;3.42;;;;;;;6.23;73.35;99168.72;4994300;28;20050;-71
2021/01/03 07:56:41;;;;;;;7.22;3.80;;;;;;;6.21;73.15;99160.25;4992138;28;20042;-71
2021/01/03 07:59:09;;;;;;;8.18;3.92;;;;;;;4.25;72.69;98859.88;4994210;28;20054;-71
2021/01/03 08:01:42;;;;;;;7.18;3.67;;;;;;;5.57;73.60;99054.13;4994123;28;20039;-71
2021/01/03 08:04:11;;;;;;;8.23;3.88;;;;;;;5.99;73.07;99112.78;4994532;28;20042;-71
2021/01/03 08:07:05;;;;;;;7.55;4.18;;;;;;;6.25;73.25;99156.91;4953812;29;20058;-71
2021/01/03 08:09:33;;;;;;;7.60;3.90;;;;;;;6.28;72.76;99161.16;4953577;29;20084;-71
2021/01/03 08:12:10;;;;;;;8.50;3.60;;;;;;;6.04;73.00;99122.13;4953462;29;20371;-72
2021/01/03 08:14:41;;;;;;;7.68;3.42;;;;;;;6.15;73.03;99134.88;4953460;29;20039;-71
2021/01/03 08:17:14;;;;;;;8.35;4.20;;;;;;;6.28;72.93;99146.81;4953027;29;20457;-71
2021/01/03 08:19:42;;;;;;;7.20;3.42;;;;;;;6.36;72.67;99150.22;4953040;29;20055;-71
2021/01/03 08:22:11;;;;;;;5.95;3.20;;;;;;;6.50;71.39;99150.34;4953299;29;20116;-71
2021/01/03 08:24:52;;;;;;;8.32;3.50;;;;;;;6.51;71.33;99155.41;4953422;29;20406;-71
2021/01/03 08:27:24;;;;;;;8.05;3.80;;;;;;;6.19;72.12;99101.09;4953373;29;20494;-72
2021/01/03 08:30:00;;;;;;;7.53;3.65;;;;;;;6.41;72.77;99158.72;4953173;29;20406;-71
2021/01/03 08:32:31;;;;;;;7.70;3.80;;;;;;;6.59;72.33;99151.25;4953267;29;20099;-71
2021/01/03 08:35:01;;;;;;;8.05;3.55;;;;;;;6.79;72.22;99160.66;4953221;29;20391;-71
2021/01/03 08:37:39;;;;;;;6.45;3.78;;;;;;;6.98;71.54;99157.41;4953103;29;20051;-71
2021/01/03 08:40:14;;;;;;;8.43;3.20;;;;;;;7.27;69.98;99166.00;4953202;29;20067;-71
2021/01/03 08:42:48;;;;;;;7.60;3.70;;;;;;;7.50;68.25;99166.91;4953243;29;20065;-71
2021/01/03 08:45:25;;;;;;;8.07;3.70;;;;;;;7.72;66.98;99166.13;4993474;28;20508;-71
2021/01/03 08:47:53;;;;;;;8.63;3.50;;;;;;;7.81;67.50;99171.22;4994157;28;20050;-71
2021/01/03 08:50:24;;;;;;;7.22;3.40;;;;;;;7.80;66.09;99174.59;4993473;28;20166;-71
2021/01/03 08:52:56;;;;;;;7.05;3.63;;;;;;;7.78;65.94;99183.06;4993485;28;20054;-72
2021/01/03 08:55:26;;;;;;;6.55;3.10;;;;;;;7.72;66.48;99177.97;4993794;28;20096;-71
2021/01/03 08:57:56;;;;;;;8.43;3.53;;;;;;;7.21;67.55;99108.44;4993894;28;20096;-71
2021/01/03 09:00:26;;;;;;;7.47;3.80;;;;;;;7.61;66.73;99174.53;4993718;28;20050;-71
2021/01/03 09:02:58;;;;;;;14.50;5.35;;;;;;;7.58;65.81;99187.25;4992501;28;20073;-71
2021/01/03 09:05:30;;;;;;;8.10;3.95;;;;;;;7.59;66.54;99179.63;4993663;28;20050;-71
2021/01/03 09:08:01;;;;;;;8.35;4.00;;;;;;;7.61;65.95;99182.16;4995839;28;20134;-71
2021/01/03 09:10:34;;;;;;;10.50;4.07;;;;;;;7.64;66.25;99195.72;4994807;28;20054;-72
2021/01/03 09:13:08;;;;;;;6.63;3.40;;;;;;;7.62;65.70;99184.72;4998134;28;20046;-71
2021/01/03 09:15:41;;;;;;;7.57;3.50;;;;;;;7.69;65.57;99186.44;4997114;28;20078;-71
2021/01/03 09:18:21;;;;;;;7.53;4.10;;;;;;;7.69;65.14;99188.97;4997011;28;20062;-72
2021/01/03 09:20:55;;;;;;;7.18;4.10;;;;;;;7.68;65.44;99177.09;4997309;28;20050;-71
2021/01/03 09:23:26;;;;;;;8.38;4.55;;;;;;;7.48;66.58;99150.81;5012199;28;20046;-71
2021/01/03 09:25:55;;;;;;;9.13;4.70;;;;;;;7.55;67.69;99177.94;5012498;28;20507;-71
2021/01/03 09:28:27;;;;;;;8.73;4.07;;;;;;;7.26;68.78;99131.28;5016445;28;20488;-71
2021/01/03 09:31:11;;;;;;;8.10;3.63;;;;;;;7.55;66.67;99172.84;5016375;28;20482;-71
2021/01/03 09:33:45;;;;;;;6.50;3.92;;;;;;;7.57;66.26;99176.25;5016184;28;20049;-71
2021/01/03 09:36:25;;;;;;;6.57;3.80;;;;;;;7.63;65.58;99161.00;4996933;28;20066;-71
2021/01/03 09:42:53;;;;;;;7.32;3.65;;;;;;;7.75;65.31;99166.13;4996270;28;20518;-71
2021/01/03 09:46:00;;;;;;;7.22;3.72;;;;;;;7.79;65.33;99157.69;4995610;28;20051;-71
2021/01/03 09:48:43;;;;;;;5.80;3.30;;;;;;;7.80;64.78;99149.19;4996586;28;20081;-71
2021/01/03 09:51:27;;;;;;;6.75;3.53;;;;;;;7.84;64.77;99150.91;4936802;29;20528;-71
2021/01/03 09:54:02;;;;;;;7.00;3.60;;;;;;;7.84;64.93;99153.44;4935588;29;20051;-73
2021/01/03 09:56:33;;;;;;;8.88;3.95;;;;;;;7.88;65.91;99151.75;4920282;29;20524;-72
2021/01/03 09:59:11;;;;;;;8.68;3.97;;;;;;;7.63;65.20;99105.13;4937072;29;20071;-71
2021/01/03 10:01:39;;;;;;;5.25;3.00;;;;;;;7.96;65.91;99150.94;4937952;29;20047;-71
2021/01/03 10:04:14;;;;;;;7.00;3.72;;;;;;;7.98;65.54;99156.00;4936347;29;20063;-71
2021/01/03 10:06:43;;;;;;;8.00;3.90;;;;;;;7.90;65.72;99135.66;4936337;29;20614;-71
2021/01/03 10:09:14;;;;;;;6.95;3.65;;;;;;;8.06;66.16;99152.59;4936345;29;20529;-71
2021/01/03 10:11:44;;;;;;;7.35;3.50;;;;;;;7.97;65.19;99137.38;4936263;29;20055;-71
2021/01/03 10:14:28;;;;;;;9.45;3.88;;;;;;;8.05;64.23;99150.94;4935933;29;20066;-71
2021/01/03 10:16:56;;;;;;;8.30;3.95;;;;;;;8.08;64.30;99161.09;4936133;29;20209;-71
2021/01/03 10:19:33;;;;;;;7.55;3.50;;;;;;;8.06;64.18;99157.69;4935837;29;20035;-71
2021/01/03 10:22:02;;;;;;;6.50;4.03;;;;;;;8.35;64.45;99169.63;4936134;29;20048;-71
2021/01/03 10:24:29;;;;;;;6.82;3.75;;;;;;;8.27;64.32;99146.72;4936017;29;20576;-71
2021/01/03 10:27:13;;;;;;;7.70;3.65;;;;;;;8.59;63.48;99160.25;4920288;29;20043;-71
2021/01/03 10:29:44;;;;;;;6.68;3.63;;;;;;;8.49;63.69;99158.59;4994591;28;20050;-71
2021/01/03 10:32:11;;;;;;;7.32;3.88;;;;;;;8.73;62.46;99167.88;4996099;28;20046;-71
2021/01/03 10:34:39;;;;;;;7.78;4.25;;;;;;;8.86;62.29;99163.59;4995705;28;20117;-72
2021/01/03 10:37:07;;;;;;;7.07;3.45;;;;;;;9.22;62.54;99161.78;4995816;28;20065;-71
2021/01/03 10:39:34;;;;;;;4.90;2.72;;;;;;;9.53;61.92;99159.09;4995549;28;20137;-71
2021/01/03 10:42:05;;;;;;;7.05;3.22;;;;;;;9.54;61.22;99158.25;4995186;28;20141;-71
2021/01/03 10:44:33;;;;;;;8.90;3.92;;;;;;;9.56;60.78;99143.81;4995517;28;20046;-71
2021/01/03 10:47:02;;;;;;;7.35;3.53;;;;;;;9.75;60.01;99140.31;4994251;28;20086;-71
2021/01/03 10:49:30;;;;;;;8.43;3.77;;;;;;;9.68;60.06;99110.63;4995430;28;20060;-71
2021/01/03 10:51:58;;;;;;;5.55;2.85;;;;;;;9.82;59.33;99139.41;4995424;28;20105;-71
2021/01/03 10:54:27;;;;;;;8.20;3.70;;;;;;;9.62;60.01;99138.69;4994275;28;20057;-71
2021/01/03 10:57:08;;;;;;;6.85;3.83;;;;;;;9.48;61.36;99135.38;4993218;28;20050;-71
2021/01/03 10:59:36;;;;;;;6.47;3.50;;;;;;;9.20;61.06;99135.50;4994702;28;20042;-72
2021/01/03 11:02:05;;;;;;;6.95;3.70;;;;;;;9.22;60.80;99108.31;4995197;28;20165;-72
2021/01/03 11:04:33;;;;;;;6.55;3.55;;;;;;;9.32;61.55;99119.31;4995455;28;20504;-71
2021/01/03 11:07:01;;;;;;;7.85;3.83;;;;;;;9.38;61.19;99122.66;4994879;28;20492;-72
2021/01/03 11:09:31;;;;;;;8.43;4.03;;;;;;;9.71;60.04;99124.19;4995166;28;20042;-71
2021/01/03 11:12:00;;;;;;;6.43;3.67;;;;;;;9.86;59.89;99113.06;4995056;28;20085;-72
2021/01/03 11:14:28;;;;;;;7.50;4.13;;;;;;;9.98;60.34;99105.31;4994716;28;20130;-72
2021/01/03 11:16:58;;;;;;;7.43;4.00;;;;;;;9.79;61.37;99111.41;4995183;28;20180;-71
2021/01/03 11:19:27;;;;;;;7.97;3.92;;;;;;;9.59;60.68;99114.09;4994759;28;20050;-71
2021/01/03 11:21:59;;;;;;;7.72;4.45;;;;;;;9.39;61.18;99109.09;4994945;28;20385;-72
2021/01/03 11:24:28;;;;;;;7.45;4.22;;;;;;;9.79;60.69;99106.31;4994735;28;20054;-72
2021/01/03 11:26:56;;;;;;;7.28;4.28;;;;;;;10.04;60.27;99101.03;4994625;28;20138;-72
2021/01/03 11:29:26;;;;;;;8.73;4.45;;;;;;;10.31;58.98;99099.97;4994549;28;20492;-72
2021/01/03 11:31:57;;;;;;;8.10;4.00;;;;;;;10.17;59.20;99108.59;4994558;28;20081;-72
2021/01/03 11:34:27;;;;;;;10.68;4.45;;;;;;;10.37;59.64;99105.00;4994618;28;20493;-71
2021/01/03 11:36:57;;;;;;;6.20;4.18;;;;;;;10.41;58.74;99119.44;4994558;28;20058;-71
2021/01/03 11:39:27;;;;;;;;;;;;;;;10.61;58.91;99122.63;4994040;28;20042;-70
2021/01/03 11:41:57;;;;;;;7.38;4.32;;;;;;;10.71;58.44;99108.91;4994222;28;19971;-71
2021/01/03 11:44:26;;;;;;;7.30;4.03;;;;;;;10.63;58.28;99061.38;4994532;28;20061;-71
2021/01/03 11:46:58;;;;;;;7.78;4.28;;;;;;;10.70;57.89;99107.22;4994753;28;20108;-71
2021/01/03 11:49:27;;;;;;;7.78;4.50;;;;;;;10.45;58.68;99105.78;4994653;28;20523;-72
2021/01/03 11:51:55;;;;;;;6.27;4.00;;;;;;;10.49;58.99;99093.84;4994353;28;20038;-72
2021/01/03 11:54:23;;;;;;;9.02;4.40;;;;;;;10.34;58.68;99092.28;4993198;28;20295;-71
2021/01/03 11:56:54;;;;;;;7.82;4.28;;;;;;;10.29;58.57;99094.03;4994304;28;20050;-72
2021/01/03 11:59:22;;;;;;;8.20;4.25;;;;;;;10.45;58.91;99085.38;4994427;28;20175;-72
2021/01/03 12:01:55;;;;;;;9.18;4.03;;;;;;;10.34;58.19;99084.63;4994433;28;20057;-70
2021/01/03 12:04:24;;;;;;;6.80;4.38;;;;;;;10.48;58.44;99080.25;4994264;28;20448;-72
2021/01/03 12:06:56;;;;;;;8.65;4.18;;;;;;;10.47;58.76;99083.66;4994317;28;20066;-72
2021/01/03 12:09:26;;;;;;;10.00;4.93;;;;;;;10.32;59.02;99082.97;4994293;28;20050;-71
2021/01/03 12:11:54;;;;;;;7.10;4.40;;;;;;;9.89;59.75;99077.34;4994137;28;20057;-70